createdAt,value
2019-04-16T00:04:53.625Z,8.00
2019-04-16T00:09:59.871Z,7.53
2019-04-16T00:15:05.702Z,7.50
2019-04-16T00:20:10.066Z,7.93
2019-04-16T00:25:14.652Z,8.60
2019-04-16T00:30:19.095Z,8.23
2019-04-16T00:35:23.512Z,7.80
2019-04-16T00:40:27.860Z,8.23
2019-04-16T00:45:32.322Z,8.00
2019-04-16T00:50:36.771Z,8.20
2019-04-16T00:55:42.333Z,8.63
2019-04-16T01:00:47.164Z,7.73
2019-04-16T01:05:51.512Z,8.37
2019-04-16T01:10:55.857Z,8.53
2019-04-16T01:16:03.467Z,8.40
2019-04-16T01:21:06.576Z,8.87
2019-04-16T01:26:10.898Z,8.73
2019-04-16T01:31:16.907Z,8.33
2019-04-16T01:36:39.261Z,8.30
2019-04-16T01:41:43.687Z,8.67
2019-04-16T01:46:48.385Z,8.47
2019-04-16T01:51:52.771Z,8.57
2019-04-16T01:56:59.644Z,8.23
2019-04-16T02:02:03.296Z,8.07
2019-04-16T02:07:07.698Z,7.77
2019-04-16T02:12:13.502Z,8.57
2019-04-16T02:17:18.188Z,8.47
2019-04-16T02:22:22.733Z,8.93
2019-04-16T02:27:27.145Z,8.50
2019-04-16T02:32:32.104Z,8.23
2019-04-16T02:37:37.604Z,8.53
2019-04-16T02:42:42.261Z,8.70
2019-04-16T02:47:46.763Z,8.20
2019-04-16T02:52:52.743Z,8.67
2019-04-16T02:58:02.381Z,8.63
2019-04-16T03:03:08.503Z,8.43
2019-04-16T03:08:12.856Z,8.20
2019-04-16T03:13:17.240Z,8.10
2019-04-16T03:18:23.243Z,8.93
2019-04-16T03:23:27.595Z,7.83
2019-04-16T03:28:31.941Z,8.43
2019-04-16T03:33:36.295Z,8.13
2019-04-16T03:38:42.122Z,8.30
2019-04-16T03:43:46.576Z,8.27
2019-04-16T03:48:52.670Z,8.57
2019-04-16T03:53:57.006Z,8.43
2019-04-16T03:59:01.382Z,8.13
2019-04-16T04:04:05.723Z,8.07
2019-04-16T04:09:10.230Z,8.03
2019-04-16T04:14:14.572Z,8.10
2019-04-16T04:19:19.025Z,8.00
2019-04-16T04:24:23.354Z,7.67
2019-04-16T04:29:29.564Z,8.60
2019-04-16T04:34:33.963Z,8.63
2019-04-16T04:39:43.609Z,7.92
2019-04-16T04:44:47.009Z,7.93
2019-04-16T04:49:51.205Z,8.37
2019-04-16T04:54:55.561Z,8.30
2019-04-16T04:59:59.918Z,8.17
2019-04-16T05:05:17.008Z,7.73
2019-04-16T05:10:21.359Z,8.27
2019-04-16T05:15:26.380Z,8.30
2019-04-16T05:20:31.778Z,8.23
2019-04-16T05:25:36.117Z,8.30
2019-04-16T05:30:40.480Z,8.10
2019-04-16T05:35:44.819Z,8.30
2019-04-16T05:40:49.163Z,9.03
2019-04-16T05:45:53.539Z,8.53
2019-04-16T05:50:59.965Z,9.17
2019-04-16T05:56:05.627Z,8.30
2019-04-16T06:01:13.734Z,9.00
2019-04-16T06:06:17.734Z,8.33
2019-04-16T06:11:29.165Z,8.97
2019-04-16T06:16:31.104Z,9.07
2019-04-16T06:21:56.664Z,8.63
2019-04-16T06:27:02.924Z,9.20
2019-04-16T06:32:18.202Z,9.00
2019-04-16T06:37:41.740Z,9.07
2019-04-16T06:42:51.462Z,8.47
2019-04-16T06:47:58.449Z,9.17
2019-04-16T06:53:23.509Z,8.90
2019-04-16T06:58:28.773Z,9.30
2019-04-16T07:03:46.962Z,8.07
2019-04-16T07:09:11.114Z,9.00
2019-04-16T07:14:16.808Z,8.63
2019-04-16T07:19:21.451Z,8.23
2019-04-16T07:24:30.161Z,8.20
2019-04-16T07:29:36.478Z,8.00
2019-04-16T07:34:51.886Z,7.60
2019-04-16T07:39:58.851Z,7.37
2019-04-16T07:45:22.273Z,7.90
2019-04-16T07:50:46.374Z,7.90
2019-04-16T07:55:52.692Z,7.40
2019-04-16T08:00:57.332Z,7.10
2019-04-16T08:06:02.192Z,6.90
2019-04-16T08:11:06.624Z,7.47
2019-04-16T08:16:11.002Z,7.70
2019-04-16T08:21:15.433Z,7.43
2019-04-16T08:26:20.739Z,7.50
2019-04-16T08:31:26.371Z,7.30
2019-04-16T08:36:30.763Z,7.37
2019-04-16T08:41:35.241Z,7.43
2019-04-16T08:46:40.402Z,7.50
2019-04-16T08:51:45.617Z,7.23
2019-04-16T08:56:50.218Z,7.67
2019-04-16T09:01:55.234Z,7.97
2019-04-16T09:07:11.099Z,7.63
2019-04-16T09:12:08.880Z,7.90
2019-04-16T09:17:14.774Z,7.60
2019-04-16T09:22:19.192Z,7.67
2019-04-16T09:27:40.523Z,7.80
2019-04-16T09:32:49.537Z,7.20
2019-04-16T09:38:13.036Z,6.90
2019-04-16T09:43:25.412Z,6.83
2019-04-16T09:48:34.464Z,7.20
2019-04-16T09:53:40.098Z,7.20
2019-04-16T09:58:42.662Z,7.37
2019-04-16T10:03:49.025Z,6.60
2019-04-16T10:08:56.476Z,6.20
2019-04-16T10:13:59.533Z,7.00
2019-04-16T10:19:07.801Z,7.03
2019-04-16T10:24:13.558Z,6.83
2019-04-16T10:29:22.365Z,7.00
2019-04-16T10:34:26.916Z,7.30
2019-04-16T10:39:33.026Z,7.13
2019-04-16T10:44:55.523Z,7.10
2019-04-16T10:50:07.660Z,7.67
2019-04-16T10:55:30.223Z,7.73
2019-04-16T11:00:52.640Z,8.20
2019-04-16T11:05:58.626Z,7.47
2019-04-16T11:11:03.006Z,7.27
2019-04-16T11:16:14.674Z,6.90
2019-04-16T11:21:19.176Z,7.33
2019-04-16T11:26:23.665Z,8.30
2019-04-16T11:31:28.093Z,8.07
2019-04-16T11:36:32.476Z,7.70
2019-04-16T11:41:37.007Z,7.13
2019-04-16T11:46:41.377Z,7.83
2019-04-16T11:51:46.802Z,7.50
2019-04-16T11:56:51.188Z,7.30
2019-04-16T12:02:09.051Z,7.47
2019-04-16T12:07:30.960Z,7.30
2019-04-16T12:12:37.089Z,8.20
2019-04-16T12:17:52.465Z,7.17
2019-04-16T12:23:03.063Z,7.10
2019-04-16T12:28:25.542Z,6.43
2019-04-16T12:33:34.435Z,6.30
2019-04-16T12:38:40.469Z,7.10
2019-04-16T12:43:52.413Z,7.90
2019-04-16T12:49:01.648Z,7.50
2019-04-16T12:54:07.837Z,7.80
2019-04-16T12:59:13.935Z,6.87
2019-04-16T13:04:35.858Z,6.47
2019-04-16T13:09:54.622Z,7.93
2019-04-16T13:15:12.616Z,7.80
2019-04-16T13:20:34.297Z,8.37
2019-04-16T13:25:43.259Z,8.60
2019-04-16T13:30:47.637Z,8.30
2019-04-16T13:35:52.016Z,7.93
2019-04-16T13:40:56.374Z,8.70
2019-04-16T13:46:00.966Z,8.20
2019-04-16T13:51:12.875Z,8.57
2019-04-16T13:56:20.228Z,9.00
2019-04-16T14:01:32.266Z,8.33
2019-04-16T14:06:36.689Z,7.83
2019-04-16T14:11:41.086Z,7.53
2019-04-16T14:16:46.321Z,8.33
2019-04-16T14:21:50.726Z,7.97
2019-04-16T14:26:55.039Z,7.87
2019-04-16T14:31:59.678Z,7.57
2019-04-16T14:37:04.149Z,7.50
2019-04-16T14:42:08.519Z,8.23
2019-04-16T14:47:12.894Z,7.30
2019-04-16T14:52:17.237Z,7.73
2019-04-16T14:57:21.611Z,7.87
2019-04-16T15:02:29.693Z,7.43
2019-04-16T15:07:35.310Z,7.57
2019-04-16T15:12:57.423Z,7.40
2019-04-16T15:18:06.356Z,7.80
2019-04-16T15:23:30.491Z,8.07
2019-04-16T15:28:36.467Z,7.97
2019-04-16T15:33:45.157Z,8.67
2019-04-16T15:39:04.083Z,8.57
2019-04-16T15:44:22.330Z,10.77
2019-04-16T15:49:29.215Z,8.40
2019-04-16T15:54:35.871Z,8.10
2019-04-16T15:59:44.315Z,9.60
2019-04-16T16:04:50.317Z,8.97
2019-04-16T16:10:02.031Z,9.00
2019-04-16T16:15:09.563Z,9.27
2019-04-16T16:20:14.771Z,8.80
2019-04-16T16:25:19.147Z,9.40
2019-04-16T16:30:23.539Z,9.10
2019-04-16T16:35:27.945Z,8.63
2019-04-16T16:40:32.322Z,8.90
2019-04-16T16:45:54.522Z,8.93
2019-04-16T16:50:59.326Z,7.77
2019-04-16T16:56:05.673Z,8.13
2019-04-16T17:01:23.700Z,8.07
2019-04-16T17:06:29.893Z,8.27
2019-04-16T17:11:34.288Z,8.17
2019-04-16T17:16:39.831Z,7.90
2019-04-16T17:21:44.257Z,7.97
2019-04-16T17:26:50.867Z,8.10
2019-04-16T17:31:55.698Z,8.10
2019-04-16T17:37:00.159Z,7.93
2019-04-16T17:42:08.030Z,8.53
2019-04-16T17:47:31.934Z,7.77
2019-04-16T17:52:27.787Z,7.73
2019-04-16T17:57:42.714Z,7.43
2019-04-16T18:02:56.937Z,7.43
2019-04-16T18:08:06.007Z,7.17
2019-04-16T18:13:12.032Z,7.13
2019-04-16T18:18:18.080Z,7.83
2019-04-16T18:23:33.125Z,7.80
2019-04-16T18:28:41.617Z,7.10
2019-04-16T18:33:56.394Z,7.07
2019-04-16T18:39:21.032Z,8.10
2019-04-16T18:44:36.381Z,6.77
2019-04-16T18:49:41.636Z,7.07
2019-04-16T18:54:49.035Z,7.53
2019-04-16T18:59:52.515Z,6.87
2019-04-16T19:04:57.325Z,7.37
2019-04-16T19:10:01.674Z,7.33
2019-04-16T19:15:06.395Z,7.43
2019-04-16T19:20:11.082Z,7.40
2019-04-16T19:25:15.469Z,6.77
2019-04-16T19:30:22.655Z,7.57
2019-04-16T19:35:25.971Z,8.00
2019-04-16T19:40:30.320Z,7.30
2019-04-16T19:45:34.711Z,8.43
2019-04-16T19:50:40.717Z,7.90
2019-04-16T19:55:46.723Z,7.67
2019-04-16T20:00:53.950Z,7.20
2019-04-16T20:05:57.229Z,7.33
2019-04-16T20:11:01.644Z,7.43
2019-04-16T20:16:06.145Z,7.83
2019-04-16T20:21:10.556Z,8.10
2019-04-16T20:26:14.981Z,7.23
2019-04-16T20:31:19.353Z,7.63
2019-04-16T20:36:23.715Z,7.67
2019-04-16T20:41:28.098Z,7.50
2019-04-16T20:46:32.487Z,7.83
2019-04-16T20:51:36.870Z,7.70
2019-04-16T20:56:41.256Z,8.33
2019-04-16T21:01:45.966Z,8.00
2019-04-16T21:06:50.522Z,7.90
2019-04-16T21:11:55.080Z,7.83
2019-04-16T21:16:59.764Z,7.83
2019-04-16T21:22:04.157Z,8.03
2019-04-16T21:27:10.607Z,8.17
2019-04-16T21:32:24.981Z,8.70
2019-04-16T21:37:30.991Z,8.30
2019-04-16T21:42:35.698Z,8.27
2019-04-16T21:47:40.099Z,8.80
2019-04-16T21:52:44.493Z,8.47
2019-04-16T21:57:48.881Z,8.93
2019-04-16T22:02:53.303Z,8.50
2019-04-16T22:07:58.344Z,8.77
2019-04-16T22:13:03.232Z,9.23
2019-04-16T22:18:09.781Z,8.60
2019-04-16T22:23:19.055Z,8.83
2019-04-16T22:28:19.729Z,8.57
2019-04-16T22:33:24.078Z,8.27
2019-04-16T22:38:31.197Z,8.20
2019-04-16T22:43:53.323Z,9.07
2019-04-16T22:48:58.987Z,8.33
2019-04-16T22:54:03.354Z,9.10
2019-04-16T22:59:08.336Z,8.40
2019-04-16T23:04:13.916Z,8.53
2019-04-16T23:09:19.035Z,8.40
2019-04-16T23:14:23.411Z,8.30
2019-04-16T23:19:27.755Z,9.33
2019-04-16T23:24:32.115Z,8.27
2019-04-16T23:29:36.468Z,9.17
2019-04-16T23:34:40.845Z,8.30
2019-04-16T23:39:45.194Z,8.10
2019-04-16T23:44:54.729Z,8.23
2019-04-16T23:50:17.783Z,8.50
2019-04-16T23:55:26.648Z,9.03
